Time;durP1;ratioP1;P1;durP2;ratioP2;P2;SDS_P1;SDS_P2;PMS_P1;PMS_P2;Temp;Humidity;BMP_temperature;BMP_pressure;BME280_temperature;BME280_humidity;BME280_pressure;Samples;Min_cycle;Max_cycle;Signal;HPM_P1;HPM_P2
2024/03/30 00:00:50;;;;;;;67.33;10.83;;;;;;;;;;6064333;23;20172;-82
2024/03/30 00:03:17;;;;;;;65.07;10.33;;;;;;;;;;6064443;23;20169;-81
2024/03/30 00:05:43;;;;;;;61.50;10.80;;;;;;;;;;6064436;23;20251;-81
2024/03/30 00:08:09;;;;;;;64.67;10.93;;;;;;;;;;6040220;23;20253;-81
2024/03/30 00:10:39;;;;;;;68.13;11.13;;;;;;;;;;6064289;23;20172;-81
2024/03/30 00:13:05;;;;;;;58.50;10.97;;;;;;;;;;6064306;23;20175;-81
2024/03/30 00:15:34;;;;;;;62.07;11.07;;;;;;;;;;6063988;23;20616;-81
2024/03/30 00:18:14;;;;;;;71.13;11.73;;;;;;;;;;6042044;23;20196;-81
2024/03/30 00:20:40;;;;;;;59.17;11.33;;;;;;;;;;6064170;23;20171;-82
2024/03/30 00:23:06;;;;;;;60.97;11.40;;;;;;;;;;6063867;23;20609;-81
2024/03/30 00:25:32;;;;;;;74.07;12.00;;;;;;;;;;6040091;23;20171;-81
2024/03/30 00:28:01;;;;;;;66.00;11.30;;;;;;;;;;6063885;23;20168;-82
2024/03/30 00:30:29;;;;;;;67.83;11.17;;;;;;;;;;6064006;23;20167;-82
2024/03/30 00:33:01;;;;;;;65.57;12.03;;;;;;;;;;6064010;23;20149;-83
2024/03/30 00:35:28;;;;;;;72.87;12.57;;;;;;;;;;6063851;23;20606;-81
2024/03/30 00:37:54;;;;;;;64.87;10.77;;;;;;;;;;6039998;23;20216;-81
2024/03/30 00:40:26;;;;;;;77.73;11.83;;;;;;;;;;6064084;23;20174;-81
2024/03/30 00:42:52;;;;;;;56.80;11.23;;;;;;;;;;6064097;23;20217;-81
2024/03/30 00:45:18;;;;;;;67.40;11.53;;;;;;;;;;6065833;23;20516;-81
2024/03/30 00:47:44;;;;;;;68.10;11.63;;;;;;;;;;6018411;23;20175;-81
2024/03/30 00:50:11;;;;;;;59.03;11.77;;;;;;;;;;6042208;23;20174;-82
2024/03/30 00:52:40;;;;;;;68.03;12.10;;;;;;;;;;6019050;23;20278;-82
2024/03/30 00:55:10;;;;;;;74.93;11.13;;;;;;;;;;6065069;23;20175;-81
2024/03/30 00:57:41;;;;;;;71.63;12.03;;;;;;;;;;6018608;23;20631;-81
2024/03/30 01:00:11;;;;;;;77.33;11.47;;;;;;;;;;6041775;23;20184;-81
2024/03/30 01:02:40;;;;;;;63.43;11.30;;;;;;;;;;6041469;23;20183;-80
2024/03/30 01:05:06;;;;;;;66.27;10.90;;;;;;;;;;6065491;23;20232;-81
2024/03/30 01:07:33;;;;;;;69.93;11.60;;;;;;;;;;6065480;23;20170;-82
2024/03/30 01:09:59;;;;;;;72.23;11.03;;;;;;;;;;6065769;23;20174;-81
2024/03/30 01:12:25;;;;;;;66.97;10.70;;;;;;;;;;6041622;23;20467;-81
2024/03/30 01:14:52;;;;;;;69.33;11.47;;;;;;;;;;6041353;23;20175;-81
2024/03/30 01:17:19;;;;;;;76.23;12.23;;;;;;;;;;6065498;23;20162;-81
2024/03/30 01:19:50;;;;;;;54.77;10.53;;;;;;;;;;6065807;23;20194;-81
2024/03/30 01:22:16;;;;;;;69.47;12.23;;;;;;;;;;6041763;23;20173;-81
2024/03/30 01:24:45;;;;;;;78.47;11.27;;;;;;;;;;6042392;23;20740;-81
2024/03/30 01:27:14;;;;;;;68.77;11.47;;;;;;;;;;6041533;23;20167;-82
2024/03/30 01:29:41;;;;;;;60.87;11.17;;;;;;;;;;6065716;23;20453;-81
2024/03/30 01:32:11;;;;;;;61.33;10.63;;;;;;;;;;6065157;23;20171;-81
2024/03/30 01:34:37;;;;;;;56.47;10.80;;;;;;;;;;6065337;23;20203;-81
2024/03/30 01:37:04;;;;;;;72.73;11.60;;;;;;;;;;6065288;23;20226;-81
2024/03/30 01:39:30;;;;;;;64.27;10.23;;;;;;;;;;6065872;23;20204;-81
2024/03/30 01:41:59;;;;;;;67.17;10.23;;;;;;;;;;6065386;23;20184;-82
2024/03/30 01:44:25;;;;;;;67.53;10.93;;;;;;;;;;6041285;23;20287;-82
2024/03/30 01:46:52;;;;;;;69.43;11.63;;;;;;;;;;6018049;23;20169;-81
2024/03/30 01:49:21;;;;;;;62.20;10.87;;;;;;;;;;6065473;23;20204;-82
2024/03/30 01:51:50;;;;;;;67.77;11.20;;;;;;;;;;6018158;23;20171;-82
2024/03/30 01:54:17;;;;;;;59.30;11.03;;;;;;;;;;6064942;23;20211;-81
2024/03/30 01:56:44;;;;;;;62.27;10.53;;;;;;;;;;6064971;23;20258;-81
2024/03/30 01:59:10;;;;;;;61.17;11.37;;;;;;;;;;6041095;23;20194;-82
2024/03/30 02:01:44;;;;;;;71.33;11.07;;;;;;;;;;6065473;23;20190;-82
2024/03/30 02:04:10;;;;;;;63.80;10.43;;;;;;;;;;6040205;23;20176;-82
2024/03/30 02:06:36;;;;;;;56.90;10.17;;;;;;;;;;6065273;23;20172;-81
2024/03/30 02:09:03;;;;;;;57.90;10.27;;;;;;;;;;6041208;23;20180;-81
2024/03/30 02:11:30;;;;;;;56.53;9.87;;;;;;;;;;6041406;23;20187;-81
2024/03/30 02:13:58;;;;;;;73.10;10.57;;;;;;;;;;6065283;23;20179;-82
2024/03/30 02:16:28;;;;;;;53.03;9.37;;;;;;;;;;6040967;23;20183;-82
2024/03/30 02:18:55;;;;;;;59.53;10.13;;;;;;;;;;6089385;23;20215;-81
2024/03/30 02:21:21;;;;;;;54.33;9.60;;;;;;;;;;6065165;23;20243;-81
2024/03/30 02:23:47;;;;;;;55.33;10.10;;;;;;;;;;6065339;23;20167;-81
2024/03/30 02:26:16;;;;;;;57.93;9.70;;;;;;;;;;6065126;23;20173;-81
2024/03/30 02:28:43;;;;;;;62.40;10.03;;;;;;;;;;6041425;23;20176;-81
2024/03/30 02:31:09;;;;;;;62.07;9.97;;;;;;;;;;6065105;23;20716;-82
2024/03/30 02:33:35;;;;;;;58.53;10.13;;;;;;;;;;6041444;23;20167;-81
2024/03/30 02:36:02;;;;;;;60.73;10.37;;;;;;;;;;6017346;23;20724;-81
2024/03/30 02:38:32;;;;;;;56.70;9.57;;;;;;;;;;6041378;23;20215;-83
2024/03/30 02:40:59;;;;;;;48.73;9.20;;;;;;;;;;6041270;23;20195;-82
2024/03/30 02:43:26;;;;;;;57.77;9.53;;;;;;;;;;6065209;23;20301;-81
2024/03/30 02:45:52;;;;;;;47.47;9.20;;;;;;;;;;6065176;23;20165;-82
2024/03/30 02:48:27;;;;;;;58.60;8.67;;;;;;;;;;6065094;23;20177;-81
2024/03/30 02:50:55;;;;;;;48.67;9.30;;;;;;;;;;6065170;23;20177;-81
2024/03/30 02:53:21;;;;;;;46.87;9.07;;;;;;;;;;6040720;23;20165;-81
2024/03/30 02:55:47;;;;;;;65.47;10.80;;;;;;;;;;6041798;23;20179;-82
2024/03/30 02:58:14;;;;;;;54.20;9.17;;;;;;;;;;6040837;23;20279;-82
2024/03/30 03:00:40;;;;;;;50.50;9.33;;;;;;;;;;6017623;23;20193;-82
2024/03/30 03:03:06;;;;;;;52.27;10.13;;;;;;;;;;6041115;23;20198;-82
2024/03/30 03:05:34;;;;;;;51.80;9.23;;;;;;;;;;6040881;23;20204;-81
2024/03/30 03:07:59;;;;;;;46.40;8.33;;;;;;;;;;6017572;23;20179;-81
2024/03/30 03:10:25;;;;;;;50.53;8.70;;;;;;;;;;6064848;23;20631;-81
2024/03/30 03:12:51;;;;;;;47.10;9.33;;;;;;;;;;6064659;23;20227;-83
2024/03/30 03:15:19;;;;;;;51.90;8.90;;;;;;;;;;6064640;23;20202;-81
2024/03/30 03:17:48;;;;;;;56.13;9.03;;;;;;;;;;6064532;23;20242;-81
2024/03/30 03:20:16;;;;;;;61.20;8.27;;;;;;;;;;6040624;23;20237;-81
2024/03/30 03:22:44;;;;;;;50.53;9.03;;;;;;;;;;6064135;23;20164;-81
2024/03/30 03:25:11;;;;;;;52.77;8.20;;;;;;;;;;6064901;23;20742;-80
2024/03/30 03:27:43;;;;;;;41.97;9.07;;;;;;;;;;6064511;23;20206;-82
2024/03/30 03:30:15;;;;;;;47.20;8.87;;;;;;;;;;6040589;23;20176;-82
2024/03/30 03:32:44;;;;;;;51.63;9.83;;;;;;;;;;6064146;23;20171;-82
2024/03/30 03:35:13;;;;;;;48.43;8.40;;;;;;;;;;6064554;23;20246;-82
2024/03/30 03:37:39;;;;;;;52.30;8.23;;;;;;;;;;6064556;23;20176;-81
2024/03/30 03:40:05;;;;;;;51.23;8.53;;;;;;;;;;6064433;23;20202;-81
2024/03/30 03:42:34;;;;;;;50.97;8.83;;;;;;;;;;6064688;23;20268;-81
2024/03/30 03:45:01;;;;;;;48.97;8.87;;;;;;;;;;6064605;23;20187;-81
2024/03/30 03:47:28;;;;;;;51.13;8.60;;;;;;;;;;6064365;23;20180;-82
2024/03/30 03:49:54;;;;;;;47.90;8.60;;;;;;;;;;6015911;23;20199;-81
2024/03/30 03:52:20;;;;;;;50.00;9.00;;;;;;;;;;6063731;23;20299;-82
2024/03/30 03:54:47;;;;;;;48.37;8.00;;;;;;;;;;6064717;23;20616;-81
2024/03/30 03:57:13;;;;;;;49.03;9.17;;;;;;;;;;6064501;23;20167;-81
2024/03/30 03:59:43;;;;;;;52.70;8.10;;;;;;;;;;6087879;23;20205;-82
2024/03/30 04:02:12;;;;;;;48.13;8.77;;;;;;;;;;6064169;23;20169;-81
2024/03/30 04:04:40;;;;;;;52.63;8.80;;;;;;;;;;6064094;23;20169;-82
2024/03/30 04:07:06;;;;;;;49.67;8.77;;;;;;;;;;6063777;23;20164;-81
2024/03/30 04:09:32;;;;;;;51.87;8.30;;;;;;;;;;6064318;23;20711;-81
2024/03/30 04:12:03;;;;;;;42.97;8.30;;;;;;;;;;6039928;23;20174;-81
2024/03/30 04:14:28;;;;;;;46.20;8.17;;;;;;;;;;6063916;23;20166;-81
2024/03/30 04:16:54;;;;;;;46.20;7.83;;;;;;;;;;6087057;23;20261;-81
2024/03/30 04:19:21;;;;;;;46.97;7.27;;;;;;;;;;6063644;23;20190;-81
2024/03/30 04:21:50;;;;;;;48.23;7.43;;;;;;;;;;6015762;23;20259;-82
2024/03/30 04:24:16;;;;;;;49.03;8.10;;;;;;;;;;6063553;23;20240;-81
2024/03/30 04:26:43;;;;;;;47.93;7.93;;;;;;;;;;6063432;23;20253;-81
2024/03/30 04:29:09;;;;;;;44.30;7.77;;;;;;;;;;6063338;23;20217;-81
2024/03/30 04:31:35;;;;;;;42.57;7.57;;;;;;;;;;6063656;23;20246;-81
2024/03/30 04:34:01;;;;;;;43.60;7.70;;;;;;;;;;6065527;23;20628;-81
2024/03/30 04:36:27;;;;;;;45.57;7.57;;;;;;;;;;6069442;23;20184;-81
2024/03/30 04:38:56;;;;;;;51.50;8.03;;;;;;;;;;6068399;23;20213;-81
2024/03/30 04:41:23;;;;;;;45.87;7.93;;;;;;;;;;6044602;23;20570;-81
2024/03/30 04:43:54;;;;;;;47.60;7.27;;;;;;;;;;6069604;23;20263;-81
2024/03/30 04:46:20;;;;;;;38.93;8.10;;;;;;;;;;6044646;23;20174;-81
2024/03/30 04:48:47;;;;;;;41.43;7.53;;;;;;;;;;6068364;23;20169;-81
2024/03/30 04:51:13;;;;;;;47.37;7.67;;;;;;;;;;6044660;23;20213;-81
2024/03/30 04:53:42;;;;;;;39.27;7.73;;;;;;;;;;6068751;23;20173;-81
2024/03/30 04:56:11;;;;;;;47.27;7.70;;;;;;;;;;6068205;23;20224;-81
2024/03/30 04:58:37;;;;;;;45.80;8.53;;;;;;;;;;6044444;23;20599;-82
2024/03/30 05:01:04;;;;;;;40.83;7.73;;;;;;;;;;6068661;23;20268;-82
2024/03/30 05:03:30;;;;;;;42.73;8.07;;;;;;;;;;6044300;23;20169;-81
2024/03/30 05:05:56;;;;;;;39.27;7.07;;;;;;;;;;6068632;23;20169;-81
2024/03/30 05:08:23;;;;;;;42.63;7.40;;;;;;;;;;6045142;23;20187;-80
2024/03/30 05:10:52;;;;;;;47.23;7.60;;;;;;;;;;6068567;23;20180;-81
2024/03/30 05:13:18;;;;;;;43.70;7.53;;;;;;;;;;6068695;23;20239;-82
2024/03/30 05:15:44;;;;;;;41.77;7.50;;;;;;;;;;6044735;23;20180;-82
2024/03/30 05:18:15;;;;;;;49.07;7.60;;;;;;;;;;6020925;23;20708;-82
2024/03/30 05:20:53;;;;;;;41.40;6.97;;;;;;;;;;6045634;23;20179;-82
2024/03/30 05:23:23;;;;;;;37.67;6.70;;;;;;;;;;6069204;23;20156;-82
2024/03/30 05:25:53;;;;;;;37.00;6.97;;;;;;;;;;6045045;23;20157;-81
2024/03/30 05:28:28;;;;;;;48.73;7.10;;;;;;;;;;6071014;23;20179;-81
2024/03/30 05:30:55;;;;;;;35.80;6.80;;;;;;;;;;6071031;23;20248;-82
2024/03/30 05:33:22;;;;;;;33.67;5.87;;;;;;;;;;6046454;23;20195;-81
2024/03/30 05:35:50;;;;;;;40.73;6.80;;;;;;;;;;6065446;23;20202;-81
2024/03/30 05:38:16;;;;;;;45.03;7.83;;;;;;;;;;6065730;23;20183;-82
2024/03/30 05:40:46;;;;;;;42.50;7.50;;;;;;;;;;6066085;23;20302;-81
2024/03/30 05:43:12;;;;;;;36.87;7.13;;;;;;;;;;6017673;23;20197;-81
2024/03/30 05:45:42;;;;;;;45.67;7.20;;;;;;;;;;6065657;23;20180;-81
2024/03/30 05:48:13;;;;;;;39.00;7.00;;;;;;;;;;6065349;23;20627;-81
2024/03/30 05:50:43;;;;;;;33.93;6.30;;;;;;;;;;6065418;23;20171;-82
2024/03/30 05:53:15;;;;;;;41.13;7.47;;;;;;;;;;6018634;23;20633;-81
2024/03/30 05:55:41;;;;;;;36.87;6.23;;;;;;;;;;6065818;23;20207;-81
2024/03/30 05:58:09;;;;;;;41.20;6.90;;;;;;;;;;6017887;23;20631;-81
2024/03/30 06:00:36;;;;;;;43.63;7.87;;;;;;;;;;6041339;23;20205;-82
2024/03/30 06:03:03;;;;;;;41.47;6.80;;;;;;;;;;6065087;23;20174;-82
2024/03/30 06:05:30;;;;;;;38.73;7.40;;;;;;;;;;6065644;23;20226;-81
2024/03/30 06:08:00;;;;;;;36.43;6.60;;;;;;;;;;6041306;23;20172;-82
2024/03/30 06:10:26;;;;;;;37.30;6.53;;;;;;;;;;6018621;23;20183;-82
2024/03/30 06:12:52;;;;;;;38.20;6.77;;;;;;;;;;6065069;23;20572;-81
2024/03/30 06:15:18;;;;;;;37.63;6.53;;;;;;;;;;6065614;23;20216;-81
2024/03/30 06:17:51;;;;;;;40.10;6.63;;;;;;;;;;6064876;23;20256;-82
2024/03/30 06:20:17;;;;;;;32.97;5.83;;;;;;;;;;6041895;23;20199;-82
2024/03/30 06:22:45;;;;;;;35.23;6.37;;;;;;;;;;6065642;23;20167;-82
2024/03/30 06:25:12;;;;;;;34.17;6.30;;;;;;;;;;6065389;23;20221;-82
2024/03/30 06:27:41;;;;;;;36.27;6.07;;;;;;;;;;6018861;23;20182;-82
2024/03/30 06:30:12;;;;;;;40.07;6.20;;;;;;;;;;6064331;23;20169;-81
2024/03/30 06:32:38;;;;;;;32.03;5.50;;;;;;;;;;6018197;23;20178;-82
2024/03/30 06:35:05;;;;;;;35.87;6.20;;;;;;;;;;6041442;23;20670;-82
2024/03/30 06:37:31;;;;;;;30.90;5.90;;;;;;;;;;6018002;23;20181;-81
2024/03/30 06:45:29;;;;;;;36.13;6.30;;;;;;;;;;6041436;23;20628;-83
2024/03/30 06:47:56;;;;;;;36.33;5.83;;;;;;;;;;6017827;23;20169;-81
2024/03/30 06:50:22;;;;;;;48.00;6.97;;;;;;;;;;6041250;23;20826;-81
2024/03/30 06:52:48;;;;;;;37.47;6.40;;;;;;;;;;6040800;23;20225;-81
2024/03/30 06:55:15;;;;;;;34.53;6.93;;;;;;;;;;6041023;23;20167;-81
2024/03/30 06:57:41;;;;;;;36.80;7.10;;;;;;;;;;6040420;23;20179;-81
2024/03/30 07:00:09;;;;;;;32.93;5.73;;;;;;;;;;6018187;23;20241;-81
2024/03/30 07:02:35;;;;;;;40.60;7.33;;;;;;;;;;6062449;23;20178;-82
2024/03/30 07:05:01;;;;;;;36.23;5.80;;;;;;;;;;6040650;23;20177;-81
2024/03/30 07:07:27;;;;;;;33.33;5.87;;;;;;;;;;6017040;23;20617;-82
2024/03/30 07:09:54;;;;;;;33.43;6.60;;;;;;;;;;6040190;23;20174;-81
2024/03/30 07:12:20;;;;;;;43.50;6.37;;;;;;;;;;6016790;23;20322;-82
2024/03/30 07:14:46;;;;;;;34.53;6.37;;;;;;;;;;6064307;23;20637;-82
2024/03/30 07:17:12;;;;;;;39.67;7.27;;;;;;;;;;6064510;23;20161;-82
2024/03/30 07:19:39;;;;;;;36.83;7.20;;;;;;;;;;6064400;23;20189;-81
2024/03/30 07:22:05;;;;;;;27.60;5.80;;;;;;;;;;6040435;23;20196;-81
2024/03/30 07:24:32;;;;;;;38.83;6.70;;;;;;;;;;6063745;23;20182;-82
2024/03/30 07:26:58;;;;;;;31.57;6.10;;;;;;;;;;6015888;23;20181;-82
2024/03/30 07:29:25;;;;;;;39.13;6.80;;;;;;;;;;6064197;23;20170;-81
2024/03/30 07:31:50;;;;;;;36.63;6.23;;;;;;;;;;6064629;23;20171;-81
2024/03/30 07:34:16;;;;;;;43.27;8.40;;;;;;;;;;6016306;23;20728;-82
2024/03/30 07:36:42;;;;;;;44.87;7.97;;;;;;;;;;6064194;23;20179;-82
2024/03/30 07:39:09;;;;;;;39.37;6.60;;;;;;;;;;6040343;23;20197;-81
2024/03/30 07:41:35;;;;;;;30.20;6.03;;;;;;;;;;6064355;23;20192;-82
2024/03/30 07:44:01;;;;;;;36.77;6.43;;;;;;;;;;6016415;23;20196;-81
2024/03/30 07:46:29;;;;;;;38.13;6.13;;;;;;;;;;6064711;23;20164;-82
2024/03/30 07:48:57;;;;;;;38.33;6.70;;;;;;;;;;6062901;23;20191;-82
2024/03/30 07:51:27;;;;;;;26.50;5.77;;;;;;;;;;6040955;23;20187;-81
2024/03/30 07:53:53;;;;;;;36.73;5.80;;;;;;;;;;6064028;23;20182;-84
2024/03/30 07:56:20;;;;;;;38.60;6.70;;;;;;;;;;6040239;23;20714;-81
2024/03/30 07:58:52;;;;;;;39.40;6.10;;;;;;;;;;6065007;23;20193;-82
2024/03/30 08:01:29;;;;;;;36.63;6.63;;;;;;;;;;6064082;23;20180;-81
2024/03/30 08:03:57;;;;;;;32.97;6.80;;;;;;;;;;6064290;23;20197;-83
2024/03/30 08:06:23;;;;;;;33.17;6.30;;;;;;;;;;6040682;23;20245;-81
2024/03/30 08:08:50;;;;;;;33.90;6.53;;;;;;;;;;6040224;23;20163;-81
2024/03/30 08:11:16;;;;;;;41.77;6.30;;;;;;;;;;6040427;23;20185;-82
2024/03/30 08:13:43;;;;;;;37.17;6.40;;;;;;;;;;6040235;23;20172;-81
2024/03/30 08:16:12;;;;;;;33.30;6.40;;;;;;;;;;6063998;23;20182;-82
2024/03/30 08:18:40;;;;;;;35.80;5.80;;;;;;;;;;6063699;23;20231;-81
2024/03/30 08:21:13;;;;;;;41.10;6.60;;;;;;;;;;6041230;23;20177;-81
2024/03/30 08:23:39;;;;;;;34.23;5.53;;;;;;;;;;6016457;23;20179;-82
2024/03/30 08:26:05;;;;;;;36.53;6.00;;;;;;;;;;6016877;23;20180;-82
2024/03/30 08:28:31;;;;;;;39.37;6.17;;;;;;;;;;6063708;23;20223;-81
2024/03/30 08:30:57;;;;;;;32.73;5.37;;;;;;;;;;6016724;23;20577;-81
2024/03/30 08:33:23;;;;;;;40.63;6.53;;;;;;;;;;6063520;23;20627;-81
2024/03/30 08:35:53;;;;;;;40.17;6.77;;;;;;;;;;6063578;23;20259;-81
2024/03/30 08:38:19;;;;;;;29.80;5.53;;;;;;;;;;6039640;23;20183;-83
2024/03/30 08:40:45;;;;;;;29.27;6.10;;;;;;;;;;6063552;23;20279;-81
2024/03/30 08:43:11;;;;;;;29.10;5.30;;;;;;;;;;6039404;23;20642;-81
2024/03/30 08:45:37;;;;;;;37.60;6.33;;;;;;;;;;6039883;23;20695;-81
2024/03/30 08:48:04;;;;;;;34.07;5.80;;;;;;;;;;6016761;23;20263;-80
2024/03/30 08:50:31;;;;;;;39.70;6.30;;;;;;;;;;6063700;23;20227;-81
2024/03/30 08:52:57;;;;;;;35.33;5.77;;;;;;;;;;6063591;23;20210;-81
2024/03/30 08:55:23;;;;;;;31.27;6.23;;;;;;;;;;6016473;23;20169;-80
2024/03/30 08:57:49;;;;;;;37.93;6.70;;;;;;;;;;6039647;23;20178;-81
2024/03/30 09:00:15;;;;;;;37.77;6.37;;;;;;;;;;6039736;23;20203;-81
2024/03/30 09:02:44;;;;;;;35.50;6.23;;;;;;;;;;6063920;23;20259;-82
2024/03/30 09:05:10;;;;;;;37.27;5.97;;;;;;;;;;6041344;23;20406;-80
2024/03/30 09:07:39;;;;;;;38.75;6.90;;;;;;;;;;6041418;23;20177;-81
2024/03/30 09:10:05;;;;;;;36.73;7.87;;;;;;;;;;6017739;23;20179;-81
2024/03/30 09:12:31;;;;;;;41.67;7.50;;;;;;;;;;6065717;23;20178;-81
2024/03/30 09:14:57;;;;;;;32.33;6.30;;;;;;;;;;6065545;23;20262;-81
2024/03/30 09:17:23;;;;;;;45.00;7.07;;;;;;;;;;6018119;23;20625;-81
2024/03/30 09:19:49;;;;;;;39.87;7.07;;;;;;;;;;6065519;23;20219;-81
2024/03/30 09:22:15;;;;;;;35.50;6.20;;;;;;;;;;6089459;23;20321;-82
2024/03/30 09:24:43;;;;;;;38.03;6.57;;;;;;;;;;6065261;23;20393;-81
2024/03/30 09:27:09;;;;;;;39.03;7.47;;;;;;;;;;6089316;23;20687;-82
2024/03/30 09:29:35;;;;;;;32.63;7.23;;;;;;;;;;6041265;23;20196;-81
2024/03/30 09:32:04;;;;;;;38.03;6.60;;;;;;;;;;6041329;23;20267;-82
2024/03/30 09:34:31;;;;;;;32.90;6.73;;;;;;;;;;6089035;23;20215;-81
2024/03/30 09:36:57;;;;;;;44.10;7.37;;;;;;;;;;6065348;23;20258;-81
2024/03/30 09:39:27;;;;;;;34.67;6.73;;;;;;;;;;6017941;23;20431;-80
2024/03/30 09:41:53;;;;;;;42.23;6.30;;;;;;;;;;6041328;23;20168;-81
2024/03/30 09:44:19;;;;;;;38.03;6.10;;;;;;;;;;6064828;23;20697;-81
2024/03/30 09:46:47;;;;;;;37.77;6.40;;;;;;;;;;6065177;23;20178;-82
2024/03/30 09:49:14;;;;;;;37.80;6.67;;;;;;;;;;6064334;23;20234;-82
2024/03/30 09:51:42;;;;;;;37.20;5.83;;;;;;;;;;6017831;23;20230;-82
2024/03/30 09:54:11;;;;;;;37.67;7.03;;;;;;;;;;6064793;23;20167;-81
2024/03/30 09:56:43;;;;;;;38.00;5.93;;;;;;;;;;6089373;23;20556;-81
2024/03/30 09:59:12;;;;;;;38.13;6.70;;;;;;;;;;6064522;23;20196;-82
2024/03/30 10:01:38;;;;;;;32.07;6.93;;;;;;;;;;6041382;23;20617;-82
2024/03/30 10:04:09;;;;;;;35.90;6.87;;;;;;;;;;6017647;23;20373;-82
2024/03/30 10:06:41;;;;;;;44.87;6.83;;;;;;;;;;6041111;23;20177;-81
2024/03/30 10:09:09;;;;;;;39.73;6.80;;;;;;;;;;6041232;23;20161;-80
2024/03/30 10:11:36;;;;;;;49.63;7.50;;;;;;;;;;6065512;23;20643;-81
2024/03/30 10:14:15;;;;;;;33.80;6.60;;;;;;;;;;6041241;23;20182;-83
2024/03/30 10:16:45;;;;;;;44.60;6.93;;;;;;;;;;6064842;23;20176;-80
2024/03/30 10:19:17;;;;;;;32.23;7.10;;;;;;;;;;6017846;23;20266;-81
2024/03/30 10:21:44;;;;;;;36.50;7.07;;;;;;;;;;6041589;23;20168;-81
2024/03/30 10:24:12;;;;;;;43.40;7.27;;;;;;;;;;6041229;23;20175;-80
2024/03/30 10:26:41;;;;;;;41.13;6.80;;;;;;;;;;6065158;23;20193;-81
2024/03/30 10:29:08;;;;;;;44.87;7.63;;;;;;;;;;6064807;23;20176;-81
2024/03/30 10:31:37;;;;;;;36.87;6.93;;;;;;;;;;6017655;23;20269;-81
2024/03/30 10:34:03;;;;;;;37.92;7.22;;;;;;;;;;6066454;23;20236;-81
2024/03/30 10:36:29;;;;;;;45.47;6.70;;;;;;;;;;6022410;23;20163;-80
2024/03/30 10:38:58;;;;;;;42.47;7.30;;;;;;;;;;6021572;23;20291;-80
2024/03/30 10:41:27;;;;;;;36.40;6.63;;;;;;;;;;6069641;23;20235;-81
2024/03/30 10:43:54;;;;;;;37.50;6.20;;;;;;;;;;6022072;23;20187;-81
2024/03/30 10:46:26;;;;;;;37.03;6.88;;;;;;;;;;6045605;23;20195;-82
2024/03/30 10:48:52;;;;;;;38.15;6.15;;;;;;;;;;6021580;23;20176;-81
2024/03/30 10:51:19;;;;;;;46.90;7.00;;;;;;;;;;6069248;23;20164;-80
2024/03/30 10:53:45;;;;;;;41.17;7.05;;;;;;;;;;6068794;23;20172;-81
2024/03/30 10:56:14;;;;;;;46.22;7.22;;;;;;;;;;6045551;23;20164;-81
2024/03/30 10:58:40;;;;;;;52.85;7.63;;;;;;;;;;6021467;23;20176;-81
2024/03/30 11:01:11;;;;;;;38.35;7.35;;;;;;;;;;6045224;23;20620;-81
2024/03/30 11:03:37;;;;;;;48.20;7.45;;;;;;;;;;6045529;23;20259;-81
2024/03/30 11:06:04;;;;;;;37.65;7.95;;;;;;;;;;6069203;23;20180;-81
2024/03/30 11:08:37;;;;;;;42.88;6.93;;;;;;;;;;6069329;23;20172;-81
2024/03/30 11:11:04;;;;;;;39.55;6.75;;;;;;;;;;6069356;23;20172;-80
2024/03/30 11:13:32;;;;;;;36.90;7.22;;;;;;;;;;6067552;23;20175;-83
2024/03/30 11:16:06;;;;;;;47.55;7.32;;;;;;;;;;6042986;23;20223;-80
2024/03/30 11:18:45;;;;;;;43.00;7.20;;;;;;;;;;6045983;23;20198;-81
2024/03/30 11:21:17;;;;;;;42.55;7.93;;;;;;;;;;6045890;23;20172;-80
2024/03/30 11:23:56;;;;;;;50.85;7.72;;;;;;;;;;6021893;23;20181;-80
2024/03/30 11:26:23;;;;;;;48.17;7.63;;;;;;;;;;6045466;23;20149;-81
2024/03/30 11:29:08;;;;;;;40.75;7.47;;;;;;;;;;6021560;23;20343;-81
2024/03/30 11:31:43;;;;;;;43.60;7.35;;;;;;;;;;6045093;23;20167;-82
2024/03/30 11:34:13;;;;;;;58.28;8.65;;;;;;;;;;6020969;23;20240;-82
2024/03/30 11:37:02;;;;;;;52.85;7.05;;;;;;;;;;6045052;23;20389;-81
2024/03/30 11:39:32;;;;;;;51.40;7.57;;;;;;;;;;6006322;23;20271;-81
2024/03/30 11:42:04;;;;;;;50.85;8.25;;;;;;;;;;6069340;23;20156;-81
2024/03/30 11:44:31;;;;;;;48.33;7.93;;;;;;;;;;6044386;23;20691;-80
2024/03/30 11:46:57;;;;;;;52.63;8.93;;;;;;;;;;6021659;23;20579;-80
2024/03/30 11:49:24;;;;;;;51.53;8.65;;;;;;;;;;6044925;23;20190;-82
2024/03/30 11:51:50;;;;;;;52.25;7.70;;;;;;;;;;6021450;23;20691;-80
2024/03/30 11:54:28;;;;;;;54.60;8.75;;;;;;;;;;6068350;23;20179;-79
2024/03/30 11:57:04;;;;;;;53.22;8.18;;;;;;;;;;6068955;23;20169;-80
2024/03/30 11:59:40;;;;;;;52.17;8.45;;;;;;;;;;6047429;23;20177;-80
2024/03/30 12:02:09;;;;;;;47.30;8.02;;;;;;;;;;6069445;23;20201;-81
2024/03/30 12:04:38;;;;;;;48.10;8.13;;;;;;;;;;6068224;23;20167;-80
2024/03/30 12:07:07;;;;;;;49.92;7.82;;;;;;;;;;6068998;23;20630;-79
2024/03/30 12:09:34;;;;;;;46.08;8.75;;;;;;;;;;6044562;23;20181;-80
2024/03/30 12:12:26;;;;;;;51.40;7.68;;;;;;;;;;6069358;23;20152;-81
2024/03/30 12:14:53;;;;;;;50.03;8.63;;;;;;;;;;6068514;23;20636;-80
2024/03/30 12:17:19;;;;;;;57.85;9.25;;;;;;;;;;6044411;23;20171;-79
2024/03/30 12:19:56;;;;;;;53.38;8.90;;;;;;;;;;6067063;23;20180;-80
2024/03/30 12:22:31;;;;;;;50.00;8.63;;;;;;;;;;6069302;23;20176;-79
2024/03/30 12:24:58;;;;;;;57.63;8.88;;;;;;;;;;6066080;23;20159;-79
2024/03/30 12:27:26;;;;;;;45.95;8.63;;;;;;;;;;6067840;23;20254;-80
2024/03/30 12:29:52;;;;;;;50.28;9.48;;;;;;;;;;6041866;23;20343;-80
2024/03/30 12:32:19;;;;;;;47.85;8.55;;;;;;;;;;6067800;23;20642;-80
2024/03/30 12:34:48;;;;;;;50.78;8.60;;;;;;;;;;6045729;23;20296;-80
2024/03/30 12:37:15;;;;;;;51.20;8.80;;;;;;;;;;6044274;23;20658;-79
2024/03/30 12:39:41;;;;;;;59.67;10.05;;;;;;;;;;6043934;23;20263;-80
2024/03/30 12:42:08;;;;;;;52.28;9.05;;;;;;;;;;6044490;23;20671;-79
2024/03/30 12:44:34;;;;;;;56.88;8.98;;;;;;;;;;6068037;23;20243;-80
2024/03/30 12:47:03;;;;;;;57.38;9.18;;;;;;;;;;6045210;23;20169;-80
2024/03/30 12:49:31;;;;;;;55.58;8.85;;;;;;;;;;6068271;23;20200;-80
2024/03/30 12:51:57;;;;;;;58.38;9.30;;;;;;;;;;6044905;23;20200;-80
2024/03/30 12:54:27;;;;;;;59.65;9.75;;;;;;;;;;6068641;23;20160;-79
2024/03/30 12:56:56;;;;;;;56.15;8.57;;;;;;;;;;6044871;23;20192;-79
2024/03/30 12:59:23;;;;;;;56.40;9.15;;;;;;;;;;6021257;23;20192;-79
2024/03/30 13:01:50;;;;;;;45.30;8.60;;;;;;;;;;6021372;23;20216;-79
2024/03/30 13:04:17;;;;;;;45.28;8.02;;;;;;;;;;6068789;23;20172;-80
2024/03/30 13:06:43;;;;;;;60.38;7.80;;;;;;;;;;6068741;23;20164;-79
2024/03/30 13:09:19;;;;;;;50.70;8.20;;;;;;;;;;6068480;23;20176;-79
2024/03/30 13:11:46;;;;;;;59.08;8.35;;;;;;;;;;6042898;23;20172;-79
2024/03/30 13:14:12;;;;;;;62.65;9.35;;;;;;;;;;6042984;23;20726;-80
2024/03/30 13:16:39;;;;;;;54.97;9.52;;;;;;;;;;6068688;23;20165;-80
2024/03/30 13:19:10;;;;;;;56.97;9.30;;;;;;;;;;6044401;23;20188;-80
2024/03/30 13:21:39;;;;;;;51.17;9.25;;;;;;;;;;6044616;23;20177;-79
2024/03/30 13:24:06;;;;;;;57.45;10.13;;;;;;;;;;6020717;23;20169;-79
2024/03/30 13:26:36;;;;;;;55.42;8.68;;;;;;;;;;6068590;23;20173;-81
2024/03/30 13:29:07;;;;;;;57.03;9.15;;;;;;;;;;6044041;23;20498;-80
2024/03/30 13:31:33;;;;;;;55.70;9.57;;;;;;;;;;6044434;23;20180;-79
2024/03/30 13:34:03;;;;;;;58.30;9.25;;;;;;;;;;6068669;23;20184;-80
2024/03/30 13:36:30;;;;;;;53.05;9.55;;;;;;;;;;6044248;23;20188;-80
2024/03/30 13:38:56;;;;;;;48.28;8.88;;;;;;;;;;6043512;23;20175;-80
2024/03/30 13:41:23;;;;;;;57.30;9.30;;;;;;;;;;6042041;23;20737;-80
2024/03/30 13:43:49;;;;;;;54.42;8.88;;;;;;;;;;6042120;23;20270;-80
2024/03/30 13:46:16;;;;;;;54.63;8.88;;;;;;;;;;6066525;23;20181;-80
2024/03/30 13:48:42;;;;;;;58.83;9.07;;;;;;;;;;6018827;23;20264;-80
2024/03/30 13:51:07;;;;;;;54.35;9.20;;;;;;;;;;6067964;23;20547;-79
2024/03/30 13:53:33;;;;;;;66.75;9.10;;;;;;;;;;6068023;23;20809;-79
2024/03/30 13:56:01;;;;;;;55.22;9.10;;;;;;;;;;6046962;23;20623;-80
2024/03/30 13:58:31;;;;;;;54.10;7.65;;;;;;;;;;6045883;23;20668;-80
2024/03/30 14:00:57;;;;;;;46.65;7.80;;;;;;;;;;6067709;23;20191;-80
2024/03/30 14:03:26;;;;;;;43.70;7.72;;;;;;;;;;6067315;23;20161;-79
2024/03/30 14:05:53;;;;;;;48.40;7.60;;;;;;;;;;6068975;23;20169;-79
2024/03/30 14:08:19;;;;;;;52.33;7.53;;;;;;;;;;6045079;23;20160;-80
2024/03/30 14:10:46;;;;;;;51.25;8.23;;;;;;;;;;6069205;23;20254;-81
2024/03/30 14:13:13;;;;;;;51.78;8.30;;;;;;;;;;6021554;23;20183;-80
2024/03/30 14:15:40;;;;;;;48.35;8.05;;;;;;;;;;6043522;23;20616;-81
2024/03/30 14:18:06;;;;;;;48.88;7.75;;;;;;;;;;6045687;23;20179;-80
2024/03/30 14:20:34;;;;;;;46.72;7.88;;;;;;;;;;6046208;23;20203;-80
2024/03/30 14:23:00;;;;;;;46.03;7.70;;;;;;;;;;6045489;23;20176;-80
2024/03/30 14:25:27;;;;;;;51.33;8.13;;;;;;;;;;6044720;23;20208;-80
2024/03/30 14:27:53;;;;;;;47.15;8.85;;;;;;;;;;6021579;23;20251;-79
2024/03/30 14:30:19;;;;;;;48.90;7.45;;;;;;;;;;6044808;23;20172;-80
2024/03/30 14:32:51;;;;;;;41.92;7.35;;;;;;;;;;6046423;23;20187;-79
2024/03/30 14:35:18;;;;;;;37.60;7.60;;;;;;;;;;6044790;23;20215;-82
2024/03/30 14:37:44;;;;;;;45.70;6.80;;;;;;;;;;6021977;23;20624;-80